createdAt,value
2023-12-22T00:11:25.599Z,18.30
2023-12-22T00:15:37.080Z,18.05
2023-12-22T00:18:22.035Z,16.98
2023-12-22T00:25:19.573Z,18.13
2023-12-22T00:31:06.080Z,18.65
2023-12-22T00:41:09.332Z,19.02
2023-12-22T00:53:49.097Z,16.88
2023-12-22T00:59:56.677Z,14.15
2023-12-22T01:02:25.219Z,12.30
2023-12-22T01:09:28.468Z,10.38
2023-12-22T01:15:50.063Z,11.50
2023-12-22T01:20:59.626Z,10.57
2023-12-22T01:22:58.847Z,9.27
2023-12-22T01:25:27.617Z,9.82
2023-12-22T01:31:27.056Z,12.48
2023-12-22T01:35:21.332Z,12.63
2023-12-22T01:38:18.792Z,11.65
2023-12-22T02:05:49.547Z,9.35
2023-12-22T02:08:26.675Z,8.57
2023-12-22T02:24:05.368Z,7.93
2023-12-22T02:27:20.487Z,7.18
2023-12-22T02:58:43.152Z,14.45
2023-12-22T03:01:33.735Z,15.48
2023-12-22T03:05:03.323Z,14.73
2023-12-22T03:07:35.053Z,14.25
2023-12-22T03:10:05.883Z,14.88
2023-12-22T03:20:40.919Z,13.10
2023-12-22T03:23:20.606Z,14.23
2023-12-22T03:41:40.851Z,14.55
2023-12-22T03:52:04.116Z,13.10
2023-12-22T03:58:16.780Z,13.70
2023-12-22T04:00:57.745Z,12.35
2023-12-22T04:07:51.606Z,13.57
2023-12-22T04:10:21.158Z,16.35
2023-12-22T04:12:52.887Z,23.33
2023-12-22T04:15:25.861Z,21.42
2023-12-22T04:27:42.973Z,16.48
2023-12-22T04:28:45.388Z,15.05
2023-12-22T04:32:11.842Z,14.68
2023-12-22T04:34:56.347Z,13.82
2023-12-22T04:46:02.520Z,12.80
2023-12-22T04:49:24.480Z,12.57
2023-12-22T04:51:56.269Z,12.50
2023-12-22T04:54:29.404Z,12.95
2023-12-22T04:57:24.310Z,13.40
2023-12-22T05:00:55.988Z,12.93
2023-12-22T05:03:44.114Z,12.60
2023-12-22T05:06:13.582Z,13.27
2023-12-22T05:08:44.641Z,12.90
2023-12-22T05:11:14.661Z,13.95
2023-12-22T05:13:47.557Z,13.02
2023-12-22T05:20:03.722Z,12.80
2023-12-22T05:25:56.270Z,12.88
2023-12-22T05:35:25.180Z,12.05
2023-12-22T06:21:54.090Z,11.15
2023-12-22T06:24:23.039Z,11.90
2023-12-22T06:34:51.568Z,12.52
2023-12-22T06:37:23.060Z,12.88
2023-12-22T06:40:01.511Z,12.57
2023-12-22T06:42:31.868Z,12.18
2023-12-22T06:45:03.580Z,13.57
2023-12-22T06:51:42.170Z,13.25
2023-12-22T07:01:54.528Z,14.45
2023-12-22T07:37:07.095Z,12.55
2023-12-22T07:40:50.074Z,12.30
2023-12-22T07:43:21.869Z,12.23
2023-12-22T07:46:22.349Z,12.38
2023-12-22T07:56:22.134Z,14.90
2023-12-22T08:04:22.976Z,12.57
2023-12-22T08:11:27.103Z,15.88
2023-12-22T08:13:56.148Z,15.23
2023-12-22T08:16:35.339Z,16.85
2023-12-22T08:19:44.030Z,16.67
2023-12-22T08:43:20.831Z,14.95
2023-12-22T08:46:22.543Z,14.35
2023-12-22T08:48:51.601Z,14.75
2023-12-22T08:59:56.710Z,15.82
2023-12-22T09:01:48.162Z,15.65
2023-12-22T09:05:50.099Z,13.55
2023-12-22T09:08:19.331Z,13.25
2023-12-22T09:15:03.697Z,12.52
2023-12-22T09:34:25.027Z,10.88
2023-12-22T09:40:27.517Z,11.88
2023-12-22T09:50:47.210Z,11.20
2023-12-22T09:53:16.223Z,11.40
2023-12-22T09:55:48.810Z,12.27
2023-12-22T09:58:18.683Z,11.80
2023-12-22T10:00:49.114Z,11.90
2023-12-22T10:03:20.519Z,11.68
2023-12-22T10:05:50.931Z,12.07
2023-12-22T10:08:22.768Z,11.25
2023-12-22T10:10:54.154Z,11.73
2023-12-22T10:13:24.005Z,12.00
2023-12-22T10:15:53.209Z,13.65
2023-12-22T10:18:21.491Z,13.95
2023-12-22T10:20:51.921Z,13.05
2023-12-22T10:23:20.507Z,11.90
2023-12-22T10:25:49.325Z,13.27
2023-12-22T10:28:18.616Z,12.25
2023-12-22T10:30:47.618Z,13.32
2023-12-22T10:33:16.007Z,11.30
2023-12-22T10:35:45.030Z,12.32
2023-12-22T10:38:15.546Z,12.25
2023-12-22T10:40:46.889Z,12.48
2023-12-22T10:43:16.302Z,11.90
2023-12-22T10:45:48.211Z,13.18
2023-12-22T10:48:16.824Z,13.23
2023-12-22T10:50:45.376Z,12.45
2023-12-22T10:53:18.735Z,12.77
2023-12-22T10:55:51.929Z,12.25
2023-12-22T10:58:20.784Z,12.32
2023-12-22T11:00:53.072Z,13.30
2023-12-22T11:03:25.169Z,13.82
2023-12-22T11:05:56.656Z,12.73
2023-12-22T11:08:30.446Z,15.10
2023-12-22T11:11:05.687Z,14.00
2023-12-22T11:13:35.182Z,14.40
2023-12-22T11:16:05.458Z,15.82
2023-12-22T11:18:37.231Z,19.90
2023-12-22T11:21:09.281Z,13.82
2023-12-22T11:23:41.743Z,12.25
2023-12-22T11:26:12.849Z,13.70
2023-12-22T11:28:45.634Z,13.35
2023-12-22T11:31:15.524Z,14.52
2023-12-22T11:33:58.517Z,23.67
2023-12-22T11:36:33.726Z,15.73
2023-12-22T11:39:05.988Z,9.70
2023-12-22T11:41:38.416Z,8.05
2023-12-22T11:44:21.722Z,8.38
2023-12-22T11:46:50.474Z,8.57
2023-12-22T11:49:21.394Z,19.27
2023-12-22T11:51:51.080Z,9.27
2023-12-22T11:56:18.415Z,20.83
2023-12-22T11:58:41.150Z,13.32
2023-12-22T12:01:11.739Z,10.25
2023-12-22T12:04:40.689Z,11.18
2023-12-22T12:11:20.893Z,7.00
2023-12-22T12:13:52.539Z,6.57
2023-12-22T12:16:26.206Z,6.22
2023-12-22T12:18:55.685Z,5.45
2023-12-22T12:21:29.558Z,4.03
2023-12-22T12:23:58.821Z,4.78
2023-12-22T12:26:49.249Z,3.80
2023-12-22T12:29:45.641Z,4.18
2023-12-22T12:32:28.118Z,5.03
2023-12-22T12:34:58.249Z,4.28
2023-12-22T12:39:34.922Z,2.45
2023-12-22T12:56:18.948Z,2.72
2023-12-22T12:58:47.910Z,2.65
2023-12-22T13:01:25.885Z,1.98
2023-12-22T13:05:22.811Z,2.72
2023-12-22T13:07:52.332Z,6.13
2023-12-22T13:10:27.252Z,4.07
2023-12-22T13:12:55.926Z,4.18
2023-12-22T13:15:24.267Z,4.18
2023-12-22T13:17:54.364Z,4.35
2023-12-22T13:20:23.551Z,2.72
2023-12-22T13:22:52.021Z,3.60
2023-12-22T13:37:33.476Z,6.70
2023-12-22T13:40:11.038Z,14.10
2023-12-22T13:47:21.961Z,8.30
2023-12-22T13:54:42.744Z,4.00
2023-12-22T13:58:36.078Z,2.97
2023-12-22T14:01:16.760Z,3.83
2023-12-22T14:04:05.675Z,2.72
2023-12-22T14:06:34.844Z,2.60
2023-12-22T14:09:04.113Z,2.40
2023-12-22T14:11:34.817Z,4.30
2023-12-22T14:14:03.417Z,7.90
2023-12-22T14:16:32.197Z,9.57
2023-12-22T14:19:00.979Z,5.18
2023-12-22T14:21:29.577Z,9.82
2023-12-22T14:23:58.085Z,5.50
2023-12-22T14:26:26.635Z,3.67
2023-12-22T14:28:56.964Z,6.25
2023-12-22T14:31:26.648Z,6.97
2023-12-22T14:33:54.985Z,8.38
2023-12-22T14:36:25.785Z,5.75
2023-12-22T14:38:55.384Z,5.15
2023-12-22T14:41:23.865Z,6.25
2023-12-22T14:43:52.297Z,4.22
2023-12-22T14:46:23.186Z,4.30
2023-12-22T14:48:52.153Z,4.38
2023-12-22T14:51:20.874Z,4.57
2023-12-22T14:53:49.655Z,3.42
2023-12-22T14:56:19.380Z,4.55
2023-12-22T14:58:47.885Z,4.43
2023-12-22T15:01:16.445Z,4.25
2023-12-22T15:03:47.723Z,7.32
2023-12-22T15:06:17.705Z,14.80
2023-12-22T15:08:46.791Z,6.38
2023-12-22T15:11:16.662Z,13.25
2023-12-22T15:13:45.539Z,6.32
2023-12-22T15:16:13.982Z,6.55
2023-12-22T15:18:43.918Z,19.23
2023-12-22T15:21:22.098Z,8.73
2023-12-22T15:23:50.799Z,14.27
2023-12-22T15:26:23.941Z,4.47
2023-12-22T15:28:52.717Z,5.88
2023-12-22T15:31:22.398Z,4.82
2023-12-22T15:33:51.183Z,5.55
2023-12-22T15:36:23.368Z,6.57
2023-12-22T15:38:52.818Z,7.68
2023-12-22T15:41:22.857Z,10.02
2023-12-22T15:43:51.608Z,7.03
2023-12-22T15:46:21.315Z,15.73
2023-12-22T15:48:50.212Z,24.05
2023-12-22T15:51:23.071Z,13.80
2023-12-22T15:53:52.905Z,16.98
2023-12-22T15:56:22.447Z,10.90
2023-12-22T15:58:51.262Z,10.27
2023-12-22T16:01:19.744Z,12.50
2023-12-22T16:03:53.262Z,17.42
2023-12-22T16:06:24.033Z,12.52
2023-12-22T16:08:52.713Z,26.90
2023-12-22T16:11:23.052Z,27.80
2023-12-22T16:13:53.486Z,25.10
2023-12-22T16:16:22.085Z,24.35
2023-12-22T16:18:50.822Z,6.22
2023-12-22T16:21:19.298Z,6.88
2023-12-22T16:23:49.864Z,6.50
2023-12-22T16:26:43.303Z,7.22
2023-12-22T16:29:11.849Z,8.10
2023-12-22T16:31:43.274Z,7.18
2023-12-22T16:34:12.473Z,7.03
2023-12-22T16:36:40.765Z,7.53
2023-12-22T16:39:11.586Z,6.80
2023-12-22T16:41:41.356Z,6.60
2023-12-22T16:44:10.030Z,5.45
2023-12-22T16:46:46.962Z,5.65
2023-12-22T16:54:05.443Z,6.82
2023-12-22T16:57:40.591Z,5.57
2023-12-22T17:01:14.636Z,7.68
2023-12-22T17:07:46.860Z,5.00
2023-12-22T17:11:18.968Z,4.35
2023-12-22T17:13:48.225Z,5.75
2023-12-22T17:19:14.775Z,5.50
2023-12-22T17:24:49.199Z,4.28
2023-12-22T17:28:38.499Z,4.32
2023-12-22T17:31:07.915Z,4.47
2023-12-22T17:33:40.350Z,4.00
2023-12-22T17:36:11.799Z,5.00
2023-12-22T17:52:26.707Z,5.43
2023-12-22T18:03:24.412Z,5.97
2023-12-22T18:05:54.396Z,6.00
2023-12-22T18:09:06.778Z,4.78
2023-12-22T18:16:24.856Z,5.25
2023-12-22T18:51:39.672Z,4.32
2023-12-22T18:54:15.765Z,5.07
2023-12-22T18:56:45.010Z,6.38
2023-12-22T18:59:14.724Z,4.63
2023-12-22T19:02:23.776Z,4.70
2023-12-22T19:05:36.548Z,5.90
2023-12-22T19:12:03.572Z,9.13
2023-12-22T19:17:42.670Z,13.27
2023-12-22T19:20:12.499Z,11.45
2023-12-22T19:23:27.503Z,10.52
2023-12-22T19:26:37.877Z,8.80
2023-12-22T19:29:10.641Z,11.05
2023-12-22T19:31:40.652Z,13.18
2023-12-22T19:34:09.571Z,13.20
2023-12-22T19:36:39.118Z,14.32
2023-12-22T19:39:10.082Z,13.68
2023-12-22T19:41:38.797Z,13.10
2023-12-22T19:44:07.701Z,13.00
2023-12-22T19:46:36.534Z,14.23
2023-12-22T19:49:05.229Z,13.95
2023-12-22T19:51:33.834Z,13.57
2023-12-22T19:54:03.119Z,13.30
2023-12-22T19:56:36.327Z,13.32
2023-12-22T19:59:05.051Z,11.98
2023-12-22T20:01:34.516Z,11.73
2023-12-22T20:04:03.265Z,11.80
2023-12-22T20:06:34.357Z,11.25
2023-12-22T20:09:04.967Z,10.93
2023-12-22T20:11:36.581Z,10.32
2023-12-22T20:14:07.146Z,9.88
2023-12-22T20:16:35.912Z,10.70
2023-12-22T20:19:05.341Z,11.25
2023-12-22T20:21:34.694Z,11.60
2023-12-22T20:24:04.009Z,10.70
2023-12-22T20:26:32.842Z,12.57
2023-12-22T20:29:07.481Z,13.18
2023-12-22T20:31:35.972Z,10.48
2023-12-22T20:34:04.986Z,9.40
2023-12-22T20:36:34.065Z,11.70
2023-12-22T20:39:06.148Z,10.32
2023-12-22T20:41:34.714Z,11.35
2023-12-22T20:44:05.985Z,11.70
2023-12-22T20:46:35.844Z,10.00
2023-12-22T20:49:06.691Z,9.10
2023-12-22T20:51:42.226Z,9.32
2023-12-22T20:54:11.199Z,9.07
2023-12-22T20:56:39.863Z,9.25
2023-12-22T20:59:10.604Z,9.77
2023-12-22T21:01:41.020Z,9.35
2023-12-22T21:04:10.234Z,7.97
2023-12-22T21:06:38.934Z,8.30
2023-12-22T21:09:10.433Z,9.77
2023-12-22T21:11:39.709Z,8.75
2023-12-22T21:14:11.199Z,9.00
2023-12-22T21:16:46.024Z,8.73
2023-12-22T21:19:14.872Z,8.55
2023-12-22T21:21:44.318Z,11.10
2023-12-22T21:24:13.770Z,9.88
2023-12-22T21:26:42.558Z,10.63
2023-12-22T21:29:13.137Z,9.90
2023-12-22T21:31:44.754Z,9.23
2023-12-22T21:34:13.557Z,9.07
2023-12-22T21:36:42.317Z,7.90
2023-12-22T21:39:12.620Z,7.57
2023-12-22T21:41:42.270Z,9.18
2023-12-22T21:44:12.853Z,10.05
2023-12-22T21:46:45.358Z,11.18
2023-12-22T21:49:14.288Z,9.82
2023-12-22T21:51:42.805Z,9.70
2023-12-22T21:54:14.437Z,8.93
2023-12-22T21:56:45.351Z,9.80
2023-12-22T21:59:16.063Z,10.77
2023-12-22T22:01:48.592Z,10.70
2023-12-22T22:04:18.904Z,10.25
2023-12-22T22:06:47.653Z,11.73
2023-12-22T22:09:17.459Z,11.57
2023-12-22T22:11:46.237Z,11.77
2023-12-22T22:14:26.258Z,12.50
2023-12-22T22:16:59.292Z,11.45
2023-12-22T22:19:28.189Z,11.70
2023-12-22T22:21:56.953Z,10.73
2023-12-22T22:24:25.886Z,11.98
2023-12-22T22:26:54.657Z,10.68
2023-12-22T22:29:24.925Z,11.23
2023-12-22T22:31:54.077Z,10.32
2023-12-22T22:34:22.630Z,10.38
2023-12-22T22:36:51.523Z,11.85
2023-12-22T22:39:19.920Z,12.77
2023-12-22T22:41:48.714Z,12.73
2023-12-22T22:44:18.792Z,13.45
2023-12-22T22:46:50.172Z,11.30
2023-12-22T22:49:18.940Z,11.82
2023-12-22T22:51:48.035Z,12.38
2023-12-22T22:54:17.843Z,12.38
2023-12-22T22:56:46.425Z,11.73
2023-12-22T22:59:15.120Z,9.05
2023-12-22T23:01:48.897Z,9.30
2023-12-22T23:04:18.552Z,9.25
2023-12-22T23:06:47.205Z,9.50
2023-12-22T23:09:16.779Z,8.20
2023-12-22T23:11:45.635Z,8.52
2023-12-22T23:14:15.051Z,7.95
2023-12-22T23:16:43.719Z,8.05
2023-12-22T23:19:13.855Z,8.40
2023-12-22T23:21:43.249Z,7.65
2023-12-22T23:24:11.971Z,7.90
2023-12-22T23:26:45.421Z,8.07
2023-12-22T23:29:13.948Z,7.88
2023-12-22T23:31:42.779Z,7.32
2023-12-22T23:34:18.094Z,8.10
2023-12-22T23:36:47.199Z,7.30
2023-12-22T23:39:16.352Z,6.93
2023-12-22T23:41:44.847Z,8.32
2023-12-22T23:44:13.735Z,7.95
2023-12-22T23:46:42.824Z,7.28
2023-12-22T23:49:13.369Z,7.57
2023-12-22T23:51:42.304Z,8.35
2023-12-22T23:54:12.819Z,9.70
2023-12-22T23:56:41.168Z,9.45
2023-12-22T23:59:12.906Z,8.85
